createdAt,value
2023-01-08T00:00:38.000Z,100203.29
2023-01-08T00:03:27.219Z,100199.98
2023-01-08T00:05:59.770Z,100192.97
2023-01-08T00:08:28.840Z,100193.16
2023-01-08T00:10:58.553Z,100196.88
2023-01-08T00:13:28.040Z,100192.22
2023-01-08T00:15:57.057Z,100191.90
2023-01-08T00:18:26.787Z,100184.02
2023-01-08T00:20:55.679Z,100180.67
2023-01-08T00:23:24.646Z,100180.54
2023-01-08T00:25:53.768Z,100182.89
2023-01-08T00:28:22.942Z,100181.68
2023-01-08T00:30:51.994Z,100181.29
2023-01-08T00:33:21.029Z,100178.25
2023-01-08T00:35:50.001Z,100174.55
2023-01-08T00:38:18.907Z,100175.27
2023-01-08T00:40:49.058Z,100172.27
2023-01-08T00:43:18.006Z,100161.23
2023-01-08T00:45:47.011Z,100157.65
2023-01-08T00:48:16.056Z,100152.48
2023-01-08T00:50:44.959Z,100162.13
2023-01-08T00:53:13.928Z,100160.59
2023-01-08T00:55:42.869Z,100162.98
2023-01-08T00:58:12.554Z,100156.72
2023-01-08T01:00:41.579Z,100160.02
2023-01-08T01:03:10.555Z,100161.04
2023-01-08T01:05:39.519Z,100163.07
2023-01-08T01:08:08.478Z,100158.04
2023-01-08T01:10:39.626Z,100152.60
2023-01-08T01:13:08.593Z,100154.66
2023-01-08T01:15:37.493Z,100151.23
2023-01-08T01:18:06.479Z,100145.08
2023-01-08T01:20:35.449Z,100149.12
2023-01-08T01:23:05.533Z,100151.92
2023-01-08T01:25:38.213Z,100153.16
2023-01-08T01:28:07.162Z,100155.08
2023-01-08T01:30:36.127Z,100149.74
2023-01-08T01:33:05.125Z,100145.45
2023-01-08T01:35:34.036Z,100139.84
2023-01-08T01:38:02.984Z,100143.20
2023-01-08T01:40:31.875Z,100140.19
2023-01-08T01:43:00.791Z,100146.64
2023-01-08T01:45:30.743Z,100131.99
2023-01-08T01:48:02.328Z,100133.41
2023-01-08T01:50:37.476Z,100123.00
2023-01-08T01:53:10.743Z,100117.77
2023-01-08T01:55:43.048Z,100113.80
2023-01-08T01:58:13.957Z,100112.33
2023-01-08T02:00:44.156Z,100108.89
2023-01-08T02:03:15.314Z,100107.01
2023-01-08T02:05:50.773Z,100097.95
2023-01-08T02:08:28.552Z,100091.69
2023-01-08T02:11:06.829Z,100085.63
2023-01-08T02:13:39.747Z,100083.20
2023-01-08T02:16:14.989Z,100077.15
2023-01-08T02:18:48.664Z,100072.02
2023-01-08T02:21:23.030Z,100074.20
2023-01-08T02:24:02.439Z,100076.48
2023-01-08T02:26:34.253Z,100068.91
2023-01-08T02:29:07.109Z,100065.76
2023-01-08T02:31:38.863Z,100066.63
2023-01-08T02:34:09.194Z,100064.55
2023-01-08T02:36:41.984Z,100064.03
2023-01-08T02:39:21.700Z,100070.08
2023-01-08T02:42:04.360Z,100065.78
2023-01-08T02:44:42.428Z,100062.67
2023-01-08T02:47:18.450Z,100063.02
2023-01-08T02:49:52.290Z,100057.59
2023-01-08T02:52:22.853Z,100052.86
2023-01-08T02:54:52.319Z,100052.36
2023-01-08T02:57:21.620Z,100052.18
2023-01-08T02:59:51.977Z,100050.80
2023-01-08T03:02:21.582Z,100052.39
2023-01-08T03:04:57.919Z,100050.99
2023-01-08T03:07:27.016Z,100048.98
2023-01-08T03:09:55.985Z,100048.02
2023-01-08T03:12:33.067Z,100046.08
2023-01-08T03:15:07.453Z,100040.81
2023-01-08T03:17:39.606Z,100039.44
2023-01-08T03:20:14.311Z,100041.20
2023-01-08T03:22:46.683Z,100031.34
2023-01-08T03:25:18.707Z,100033.33
2023-01-08T03:27:52.107Z,100026.30
2023-01-08T03:30:23.236Z,100025.44
2023-01-08T03:32:54.434Z,100024.20
2023-01-08T03:35:25.815Z,100015.99
2023-01-08T03:38:01.742Z,100012.10
2023-01-08T03:40:35.202Z,100012.96
2023-01-08T03:43:04.208Z,100020.27
2023-01-08T03:45:34.009Z,100019.75
2023-01-08T03:48:04.470Z,100015.17
2023-01-08T03:50:34.138Z,100015.43
2023-01-08T03:53:03.104Z,100011.65
2023-01-08T03:55:32.017Z,100016.69
2023-01-08T03:58:00.933Z,100013.98
2023-01-08T04:00:30.155Z,100007.67
2023-01-08T04:02:59.104Z,100003.23
2023-01-08T04:05:28.377Z,99999.89
2023-01-08T04:07:57.626Z,100001.22
2023-01-08T04:10:26.950Z,100000.73
2023-01-08T04:12:55.898Z,99998.67
2023-01-08T04:15:24.822Z,100000.30
2023-01-08T04:17:54.803Z,99998.31
2023-01-08T04:20:23.692Z,99999.48
2023-01-08T04:22:52.612Z,99998.34
2023-01-08T04:25:21.559Z,99993.85
2023-01-08T04:27:50.623Z,99992.66
2023-01-08T04:30:19.486Z,99989.10
2023-01-08T04:32:48.436Z,99987.54
2023-01-08T04:35:17.506Z,99989.71
2023-01-08T04:37:46.423Z,99991.20
2023-01-08T04:40:15.700Z,99993.45
2023-01-08T04:42:44.673Z,99993.59
2023-01-08T04:45:13.672Z,99986.98
2023-01-08T04:47:42.884Z,99990.34
2023-01-08T04:50:12.259Z,99982.64
2023-01-08T04:52:41.165Z,99981.76
2023-01-08T04:55:10.408Z,99984.13
2023-01-08T04:57:39.318Z,99983.29
2023-01-08T05:00:10.001Z,99980.14
2023-01-08T05:02:39.327Z,99975.70
2023-01-08T05:05:09.239Z,99965.38
2023-01-08T05:07:38.193Z,99959.02
2023-01-08T05:10:09.960Z,99957.88
2023-01-08T05:12:38.885Z,99955.27
2023-01-08T05:15:10.195Z,99950.02
2023-01-08T05:17:39.193Z,99955.29
2023-01-08T05:20:09.926Z,99955.39
2023-01-08T05:22:38.909Z,99956.43
2023-01-08T05:25:09.289Z,99957.16
2023-01-08T05:27:38.252Z,99969.66
2023-01-08T05:30:09.883Z,99972.23
2023-01-08T05:32:38.877Z,99969.20
2023-01-08T05:35:09.618Z,99966.89
2023-01-08T05:37:39.333Z,99960.33
2023-01-08T05:40:10.269Z,99954.91
2023-01-08T05:42:39.236Z,99960.64
2023-01-08T05:45:09.697Z,99983.71
2023-01-08T05:47:38.654Z,99972.61
2023-01-08T05:50:09.014Z,99963.28
2023-01-08T05:52:37.919Z,99963.57
2023-01-08T05:55:08.067Z,99954.02
2023-01-08T05:57:37.060Z,99946.81
2023-01-08T06:00:09.329Z,99944.39
2023-01-08T06:02:45.446Z,99943.29
2023-01-08T06:05:14.673Z,99944.23
2023-01-08T06:07:43.632Z,99948.17
2023-01-08T06:10:12.512Z,99941.95
2023-01-08T06:12:41.467Z,99934.55
2023-01-08T06:15:12.695Z,99925.55
2023-01-08T06:17:42.107Z,99913.69
2023-01-08T06:20:12.147Z,99911.84
2023-01-08T06:22:41.106Z,99911.48
2023-01-08T06:25:10.868Z,99921.26
2023-01-08T06:27:40.687Z,99927.30
2023-01-08T06:30:10.792Z,99930.81
2023-01-08T06:32:39.714Z,99928.92
2023-01-08T06:35:09.744Z,99931.30
2023-01-08T06:37:38.674Z,99932.35
2023-01-08T06:40:09.838Z,99928.65
2023-01-08T06:42:38.728Z,99923.76
2023-01-08T06:45:09.688Z,99915.39
2023-01-08T06:47:38.720Z,99913.61
2023-01-08T06:50:08.876Z,99913.94
2023-01-08T06:52:37.809Z,99909.65
2023-01-08T06:55:08.711Z,99907.17
2023-01-08T06:57:40.940Z,99899.02
2023-01-08T07:00:12.055Z,99889.00
2023-01-08T07:02:41.225Z,99885.11
2023-01-08T07:05:10.794Z,99891.96
2023-01-08T07:07:39.764Z,99898.08
2023-01-08T07:10:09.681Z,99897.89
2023-01-08T07:12:38.616Z,99886.08
2023-01-08T07:15:09.421Z,99884.77
2023-01-08T07:17:38.376Z,99881.42
2023-01-08T07:20:09.899Z,99875.21
2023-01-08T07:22:38.823Z,99880.35
2023-01-08T07:25:09.668Z,99883.83
2023-01-08T07:27:38.621Z,99883.40
2023-01-08T07:30:21.020Z,99885.09
2023-01-08T07:33:00.110Z,99878.23
2023-01-08T07:35:29.171Z,99872.41
2023-01-08T07:37:58.154Z,99875.35
2023-01-08T07:40:27.093Z,99875.05
2023-01-08T07:43:00.109Z,99880.60
2023-01-08T07:45:29.433Z,99887.02
2023-01-08T07:47:59.135Z,99886.98
2023-01-08T07:50:28.292Z,99888.13
2023-01-08T07:52:59.054Z,99885.52
2023-01-08T07:55:29.886Z,99877.98
2023-01-08T07:57:59.165Z,99873.00
2023-01-08T08:00:28.483Z,99878.91
2023-01-08T08:03:03.674Z,99878.10
2023-01-08T08:05:34.059Z,99877.77
2023-01-08T08:08:07.449Z,99878.23
2023-01-08T08:10:36.366Z,99878.71
2023-01-08T08:13:05.694Z,99880.84
2023-01-08T08:15:36.272Z,99884.39
2023-01-08T08:18:05.882Z,99876.02
2023-01-08T08:20:35.156Z,99866.90
2023-01-08T08:23:05.949Z,99865.27
2023-01-08T08:25:35.242Z,99864.38
2023-01-08T08:28:05.237Z,99864.27
2023-01-08T08:30:35.998Z,99866.56
2023-01-08T08:33:07.089Z,99862.66
2023-01-08T08:35:36.581Z,99866.21
2023-01-08T08:38:05.972Z,99867.38
2023-01-08T08:40:35.018Z,99867.73
2023-01-08T08:43:04.686Z,99867.48
2023-01-08T08:45:33.798Z,99870.50
2023-01-08T08:48:05.386Z,99870.20
2023-01-08T08:50:35.094Z,99868.37
2023-01-08T08:53:05.360Z,99865.02
2023-01-08T08:55:34.971Z,99863.03
2023-01-08T08:58:05.754Z,99865.90
2023-01-08T09:00:34.644Z,99866.03
2023-01-08T09:03:03.857Z,99861.20
2023-01-08T09:05:36.400Z,99865.24
2023-01-08T09:08:05.704Z,99860.15
2023-01-08T09:10:36.310Z,99860.30
2023-01-08T09:13:05.632Z,99859.25
2023-01-08T09:15:35.743Z,99856.05
2023-01-08T09:18:05.294Z,99851.41
2023-01-08T09:20:34.259Z,99843.77
2023-01-08T09:23:03.529Z,99834.44
2023-01-08T09:25:32.519Z,99835.18
2023-01-08T09:28:02.630Z,99834.65
2023-01-08T09:30:32.425Z,99831.52
2023-01-08T09:33:03.254Z,99838.83
2023-01-08T09:35:33.158Z,99828.44
2023-01-08T09:38:02.136Z,99829.21
2023-01-08T09:40:35.473Z,99829.80
2023-01-08T09:43:05.643Z,99818.52
2023-01-08T09:45:38.553Z,99809.41
2023-01-08T09:48:13.362Z,99806.89
2023-01-08T09:50:42.278Z,99803.50
2023-01-08T09:53:15.421Z,99801.02
2023-01-08T09:55:46.550Z,99796.17
2023-01-08T09:58:24.490Z,99790.67
2023-01-08T10:00:54.219Z,99791.08
2023-01-08T10:03:29.981Z,99792.29
2023-01-08T10:05:58.902Z,99787.70
2023-01-08T10:08:27.810Z,99790.23
2023-01-08T10:10:56.816Z,99792.91
2023-01-08T10:13:25.848Z,99784.13
2023-01-08T10:15:54.833Z,99781.20
2023-01-08T10:18:25.989Z,99769.86
2023-01-08T10:20:54.935Z,99768.52
2023-01-08T10:23:23.906Z,99767.43
2023-01-08T10:25:55.430Z,99766.67
2023-01-08T10:28:26.510Z,99760.15
2023-01-08T10:31:03.718Z,99752.30
2023-01-08T10:33:40.676Z,99740.61
2023-01-08T10:36:13.893Z,99741.09
2023-01-08T10:38:49.505Z,99742.13
2023-01-08T10:41:19.713Z,99735.39
2023-01-08T10:43:53.351Z,99736.40
2023-01-08T10:46:24.884Z,99737.54
2023-01-08T10:48:56.720Z,99736.49
2023-01-08T10:51:27.710Z,99735.24
2023-01-08T10:53:58.986Z,99732.48
2023-01-08T10:56:30.202Z,99733.61
2023-01-08T10:58:59.833Z,99726.25
2023-01-08T11:01:31.359Z,99726.88
2023-01-08T11:04:02.713Z,99722.23
2023-01-08T11:06:36.730Z,99725.64
2023-01-08T11:09:19.875Z,99727.08
2023-01-08T11:11:49.327Z,99724.83
2023-01-08T11:14:22.344Z,99721.10
2023-01-08T11:16:51.479Z,99719.73
2023-01-08T11:19:23.593Z,99720.83
2023-01-08T11:21:57.519Z,99722.95
2023-01-08T11:24:30.071Z,99718.54
2023-01-08T11:27:05.640Z,99716.05
2023-01-08T11:29:43.899Z,99715.54
2023-01-08T11:32:41.757Z,99715.73
2023-01-08T11:35:17.248Z,99709.36
2023-01-08T11:37:51.643Z,99707.77
2023-01-08T11:40:28.934Z,99705.85
2023-01-08T11:43:11.639Z,99712.36
2023-01-08T11:46:05.728Z,99710.29
2023-01-08T11:49:01.942Z,99707.38
2023-01-08T11:51:41.089Z,99708.70
2023-01-08T11:54:24.636Z,99709.56
2023-01-08T11:57:14.097Z,99704.86
2023-01-08T11:59:58.479Z,99707.42
2023-01-08T12:02:40.963Z,99712.09
2023-01-08T12:05:25.542Z,99697.20
2023-01-08T12:08:02.427Z,99689.52
2023-01-08T12:10:41.660Z,99677.87
2023-01-08T12:13:24.581Z,99671.27
2023-01-08T12:16:06.771Z,99672.04
2023-01-08T12:18:52.930Z,99674.23
2023-01-08T12:21:31.191Z,99678.30
2023-01-08T12:24:55.662Z,99672.27
2023-01-08T12:27:55.979Z,99671.81
2023-01-08T12:30:40.525Z,99666.63
2023-01-08T12:33:19.709Z,99657.69
2023-01-08T12:35:56.316Z,99653.25
2023-01-08T12:38:32.361Z,99646.91
2023-01-08T12:41:08.397Z,99639.40
2023-01-08T12:43:51.854Z,99637.73
2023-01-08T12:46:26.326Z,99629.77
2023-01-08T12:48:59.703Z,99633.37
2023-01-08T12:51:40.393Z,99637.16
2023-01-08T12:54:21.927Z,99640.77
2023-01-08T12:57:02.182Z,99636.78
2023-01-08T12:59:43.981Z,99643.15
2023-01-08T13:02:36.037Z,99640.68
2023-01-08T13:05:30.925Z,99646.37
2023-01-08T13:08:07.193Z,99639.78
2023-01-08T13:10:49.756Z,99643.84
2023-01-08T13:13:29.948Z,99636.46
2023-01-08T13:16:25.564Z,99623.75
2023-01-08T13:19:01.018Z,99616.87
2023-01-08T13:21:36.109Z,99609.01
2023-01-08T13:24:30.672Z,99609.91
2023-01-08T13:27:29.180Z,99612.33
2023-01-08T13:30:02.230Z,99604.58
2023-01-08T13:32:47.332Z,99611.12
2023-01-08T13:35:27.376Z,99609.48
2023-01-08T13:38:17.560Z,99605.52
2023-01-08T13:40:57.649Z,99607.97
2023-01-08T13:43:33.107Z,99603.88
2023-01-08T13:46:18.221Z,99602.41
2023-01-08T13:48:59.054Z,99602.29
2023-01-08T13:51:35.348Z,99600.48
2023-01-08T13:54:20.946Z,99594.56
2023-01-08T13:56:57.037Z,99586.63
2023-01-08T13:59:39.177Z,99590.84
2023-01-08T14:02:31.208Z,99591.50
2023-01-08T14:05:12.810Z,99593.84
2023-01-08T14:07:45.405Z,99593.31
2023-01-08T14:10:19.319Z,99596.21
2023-01-08T14:12:52.699Z,99596.66
2023-01-08T14:15:27.830Z,99595.16
2023-01-08T14:18:02.583Z,99594.30
2023-01-08T14:20:37.089Z,99594.91
2023-01-08T14:23:19.464Z,99589.91
2023-01-08T14:25:52.358Z,99589.64
2023-01-08T14:28:25.381Z,99588.30
2023-01-08T14:30:59.195Z,99583.55
2023-01-08T14:33:34.819Z,99583.83
2023-01-08T14:36:10.015Z,99584.99
2023-01-08T14:38:43.021Z,99582.66
2023-01-08T14:41:16.470Z,99586.34
2023-01-08T14:43:51.047Z,99576.66
2023-01-08T14:46:27.392Z,99570.05
2023-01-08T14:48:59.988Z,99567.68
2023-01-08T14:51:33.460Z,99565.92
2023-01-08T14:54:08.654Z,99568.48
2023-01-08T14:56:40.924Z,99567.45
2023-01-08T14:59:19.470Z,99562.94
2023-01-08T15:01:56.710Z,99555.75
2023-01-08T15:04:30.973Z,99544.70
2023-01-08T15:07:17.431Z,99546.70
2023-01-08T15:09:58.664Z,99546.53
2023-01-08T15:12:32.534Z,99542.43
2023-01-08T15:15:23.728Z,99539.29
2023-01-08T15:17:56.509Z,99536.02
2023-01-08T15:20:32.520Z,99531.80
2023-01-08T15:23:04.968Z,99532.54
2023-01-08T15:25:37.141Z,99542.08
2023-01-08T15:28:15.765Z,99537.13
2023-01-08T15:30:49.462Z,99534.08
2023-01-08T15:33:24.518Z,99528.51
2023-01-08T15:35:56.813Z,99525.08
2023-01-08T15:38:29.008Z,99523.00
2023-01-08T15:41:01.309Z,99513.02
2023-01-08T15:43:33.498Z,99517.71
2023-01-08T15:46:06.005Z,99522.75
2023-01-08T15:48:38.245Z,99535.11
2023-01-08T15:51:12.105Z,99549.23
2023-01-08T15:53:44.303Z,99543.02
2023-01-08T15:56:16.491Z,99534.77
2023-01-08T15:58:48.630Z,99527.64
2023-01-08T16:01:21.098Z,99515.48
2023-01-08T16:03:53.516Z,99512.70
2023-01-08T16:06:25.732Z,99518.37
2023-01-08T16:09:00.514Z,99521.47
2023-01-08T16:11:32.753Z,99532.97
2023-01-08T16:14:04.945Z,99521.33
2023-01-08T16:16:37.328Z,99513.88
2023-01-08T16:19:09.612Z,99525.53
2023-01-08T16:21:46.944Z,99519.57
2023-01-08T16:24:19.172Z,99528.84
2023-01-08T16:26:51.580Z,99536.71
2023-01-08T16:29:23.902Z,99535.43
2023-01-08T16:31:56.884Z,99542.19
2023-01-08T16:34:29.349Z,99532.86
2023-01-08T16:37:01.540Z,99533.89
2023-01-08T16:39:33.927Z,99538.73
2023-01-08T16:42:06.349Z,99528.99
2023-01-08T16:44:38.897Z,99525.43
2023-01-08T16:47:11.083Z,99526.77
2023-01-08T16:49:43.267Z,99528.52
2023-01-08T16:52:15.633Z,99523.71
2023-01-08T16:54:48.807Z,99514.92
2023-01-08T16:57:21.124Z,99519.86
2023-01-08T16:59:53.348Z,99516.45
2023-01-08T17:02:26.063Z,99517.11
2023-01-08T17:04:58.343Z,99516.14
2023-01-08T17:07:30.590Z,99515.34
2023-01-08T17:10:02.780Z,99511.41
2023-01-08T17:12:34.951Z,99512.82
2023-01-08T17:15:08.835Z,99515.83
2023-01-08T17:17:41.054Z,99513.05
2023-01-08T17:20:14.550Z,99514.27
2023-01-08T17:22:46.800Z,99514.61
2023-01-08T17:25:19.377Z,99512.02
2023-01-08T17:27:53.924Z,99512.40
2023-01-08T17:30:26.429Z,99516.35
2023-01-08T17:32:58.748Z,99505.86
2023-01-08T17:35:31.101Z,99504.13
2023-01-08T17:38:03.253Z,99501.04
2023-01-08T17:40:35.683Z,99494.50
2023-01-08T17:46:06.604Z,99480.89
2023-01-08T17:48:37.689Z,99477.45
2023-01-08T17:51:10.293Z,99471.10
2023-01-08T17:53:42.490Z,99465.59
2023-01-08T17:56:14.681Z,99463.25
2023-01-08T17:58:49.620Z,99459.29
2023-01-08T18:01:22.280Z,99458.52
2023-01-08T18:03:55.052Z,99449.97
2023-01-08T18:06:27.329Z,99452.33
2023-01-08T18:09:00.439Z,99448.68
2023-01-08T18:11:33.322Z,99443.74
2023-01-08T18:14:05.848Z,99443.29
2023-01-08T18:16:38.519Z,99450.55
2023-01-08T18:19:12.521Z,99453.20
2023-01-08T18:21:45.514Z,99449.45
2023-01-08T18:24:18.318Z,99454.02
2023-01-08T18:26:51.477Z,99470.23
2023-01-08T18:29:23.854Z,99477.27
2023-01-08T18:31:56.076Z,99472.86
2023-01-08T18:34:28.567Z,99474.66
2023-01-08T18:37:00.768Z,99465.13
2023-01-08T18:39:33.408Z,99468.23
2023-01-08T18:42:23.531Z,99469.61
2023-01-08T18:44:56.120Z,99466.79
2023-01-08T18:47:29.897Z,99457.79
2023-01-08T18:50:03.522Z,99457.44
2023-01-08T18:52:36.200Z,99462.09
2023-01-08T18:55:09.613Z,99461.14
2023-01-08T18:57:41.989Z,99459.01
2023-01-08T19:00:18.194Z,99462.33
2023-01-08T19:02:52.133Z,99463.33
2023-01-08T19:05:25.137Z,99457.20
2023-01-08T19:07:57.251Z,99456.00
2023-01-08T19:10:29.497Z,99453.60
2023-01-08T19:13:01.610Z,99454.52
2023-01-08T19:15:34.320Z,99450.56
2023-01-08T19:18:08.995Z,99457.95
2023-01-08T19:20:46.347Z,99460.65
2023-01-08T19:23:18.680Z,99464.42
2023-01-08T19:25:50.851Z,99465.33
2023-01-08T19:28:23.170Z,99461.70
2023-01-08T19:30:59.408Z,99462.97
2023-01-08T19:33:32.014Z,99453.23
2023-01-08T19:36:11.111Z,99446.09
2023-01-08T19:38:44.024Z,99444.46
2023-01-08T19:41:34.024Z,99440.64
2023-01-08T19:44:08.644Z,99436.55
2023-01-08T19:46:40.841Z,99427.65
2023-01-08T19:49:13.630Z,99425.31
2023-01-08T19:51:45.837Z,99422.80
2023-01-08T19:54:20.295Z,99415.56
2023-01-08T19:56:52.568Z,99408.80
2023-01-08T19:59:25.052Z,99396.02
2023-01-08T20:01:57.314Z,99397.41
2023-01-08T20:04:29.855Z,99402.16
2023-01-08T20:07:02.274Z,99400.01
2023-01-08T20:09:35.110Z,99389.70
2023-01-08T20:12:08.844Z,99380.52
2023-01-08T20:14:41.039Z,99387.85
2023-01-08T20:17:13.435Z,99392.45
2023-01-08T20:19:45.569Z,99391.17
2023-01-08T20:22:17.844Z,99387.86
2023-01-08T20:24:50.320Z,99391.42
2023-01-08T20:27:22.599Z,99388.81
2023-01-08T20:29:54.912Z,99388.70
2023-01-08T20:32:27.031Z,99390.61
2023-01-08T20:34:59.227Z,99381.80
2023-01-08T20:37:31.397Z,99382.40
2023-01-08T20:40:03.618Z,99389.77
2023-01-08T20:42:36.241Z,99388.64
2023-01-08T20:45:10.129Z,99375.45
2023-01-08T20:47:42.570Z,99364.02
2023-01-08T20:50:20.430Z,99354.76
2023-01-08T20:52:52.831Z,99354.55
2023-01-08T20:55:25.076Z,99358.85
2023-01-08T20:57:57.315Z,99366.12
2023-01-08T21:00:29.588Z,99361.16
2023-01-08T21:03:01.980Z,99363.79
2023-01-08T21:05:36.250Z,99369.08
2023-01-08T21:08:10.520Z,99358.38
2023-01-08T21:10:42.894Z,99351.14
2023-01-08T21:13:15.037Z,99357.82
2023-01-08T21:15:47.178Z,99354.48
2023-01-08T21:18:19.498Z,99351.96
2023-01-08T21:20:51.719Z,99349.00
2023-01-08T21:23:23.963Z,99346.06
2023-01-08T21:25:59.141Z,99340.84
2023-01-08T21:28:31.601Z,99342.84
2023-01-08T21:31:10.150Z,99339.61
2023-01-08T21:33:42.959Z,99330.88
2023-01-08T21:36:17.578Z,99320.86
2023-01-08T21:38:50.524Z,99318.86
2023-01-08T21:41:42.731Z,99313.16
2023-01-08T21:44:34.509Z,99309.08
2023-01-08T21:47:08.475Z,99318.52
2023-01-08T21:49:40.953Z,99319.94
2023-01-08T21:52:30.829Z,99286.84
2023-01-08T21:55:03.297Z,99287.40
2023-01-08T21:57:40.767Z,99306.27
2023-01-08T22:00:16.188Z,99313.64
2023-01-08T22:02:48.412Z,99309.86
2023-01-08T22:05:20.885Z,99304.24
2023-01-08T22:07:53.101Z,99290.33
2023-01-08T22:10:25.296Z,99292.20
2023-01-08T22:12:57.501Z,99282.05
2023-01-08T22:15:29.762Z,99279.09
2023-01-08T22:18:01.887Z,99278.73
2023-01-08T22:20:34.073Z,99268.14
2023-01-08T22:23:06.335Z,99268.60
2023-01-08T22:25:42.025Z,99274.16
2023-01-08T22:28:14.598Z,99269.95
2023-01-08T22:30:46.790Z,99278.80
2023-01-08T22:33:18.935Z,99272.96
2023-01-08T22:35:51.202Z,99257.68
2023-01-08T22:38:23.451Z,99252.60
2023-01-08T22:40:55.750Z,99249.95
2023-01-08T22:43:28.206Z,99243.59
2023-01-08T22:46:01.506Z,99241.75
2023-01-08T22:48:33.819Z,99224.77
2023-01-08T22:51:07.065Z,99226.66
2023-01-08T22:53:39.836Z,99226.46
2023-01-08T22:56:13.210Z,99218.59
2023-01-08T22:58:46.532Z,99206.91
2023-01-08T23:01:20.904Z,99193.83
2023-01-08T23:03:54.665Z,99181.39
2023-01-08T23:06:28.965Z,99177.15
2023-01-08T23:09:01.612Z,99169.67
2023-01-08T23:11:34.529Z,99164.24
2023-01-08T23:14:06.732Z,99158.14
2023-01-08T23:16:39.146Z,99157.44
2023-01-08T23:19:11.979Z,99153.93
2023-01-08T23:21:44.347Z,99147.56
2023-01-08T23:24:17.012Z,99148.63
2023-01-08T23:26:49.262Z,99144.42
2023-01-08T23:29:21.519Z,99147.30
2023-01-08T23:31:53.756Z,99148.96
2023-01-08T23:34:26.157Z,99150.16
2023-01-08T23:36:58.381Z,99151.83
2023-01-08T23:39:30.564Z,99154.20
2023-01-08T23:42:02.786Z,99150.99
2023-01-08T23:44:34.928Z,99132.28
2023-01-08T23:47:07.734Z,99124.41
2023-01-08T23:49:40.134Z,99121.48
2023-01-08T23:52:12.405Z,99134.26
2023-01-08T23:54:44.574Z,99138.70
2023-01-08T23:57:16.790Z,99145.00
2023-01-08T23:59:49.058Z,99140.98
